createdAt,value
2022-10-29T00:02:06.116Z,96139.31
2022-10-29T00:04:32.818Z,96142.25
2022-10-29T00:06:59.540Z,96121.56
2022-10-29T00:09:26.094Z,96131.16
2022-10-29T00:11:52.750Z,96124.44
2022-10-29T00:14:19.376Z,96111.56
2022-10-29T00:16:45.913Z,96132.34
2022-10-29T00:19:12.470Z,96114.94
2022-10-29T00:21:40.457Z,96126.72
2022-10-29T00:24:09.897Z,96122.75
2022-10-29T00:26:36.539Z,96122.22
2022-10-29T00:29:03.127Z,96124.03
2022-10-29T00:31:31.028Z,96117.84
2022-10-29T00:33:57.863Z,96123.63
2022-10-29T00:36:27.049Z,96114.31
2022-10-29T00:38:54.167Z,96115.84
2022-10-29T00:41:27.091Z,96128.81
2022-10-29T00:44:22.922Z,96119.22
2022-10-29T00:46:56.452Z,96121.97
2022-10-29T00:49:24.806Z,96119.38
2022-10-29T00:51:51.740Z,96115.97
2022-10-29T00:54:18.972Z,96109.19
2022-10-29T00:56:51.799Z,96110.88
2022-10-29T00:59:18.610Z,96109.38
2022-10-29T01:01:48.406Z,96106.00
2022-10-29T01:04:17.034Z,96099.44
2022-10-29T01:06:44.134Z,96090.53
2022-10-29T01:09:10.939Z,96079.47
2022-10-29T01:12:20.837Z,96079.81
2022-10-29T01:14:50.281Z,96090.28
2022-10-29T01:17:28.221Z,96084.53
2022-10-29T01:20:06.706Z,96090.41
2022-10-29T01:22:45.927Z,96098.19
2022-10-29T01:25:36.151Z,96099.44
2022-10-29T01:28:39.569Z,96096.31
2022-10-29T01:31:27.710Z,96097.22
2022-10-29T01:34:21.815Z,96092.22
2022-10-29T01:36:53.506Z,96082.59
2022-10-29T01:39:29.115Z,96086.06
2022-10-29T01:42:18.573Z,96082.25
2022-10-29T01:45:09.365Z,96086.16
2022-10-29T01:47:44.554Z,96079.69
2022-10-29T01:50:16.026Z,96073.84
2022-10-29T01:52:43.708Z,96076.97
2022-10-29T01:55:10.483Z,96070.81
2022-10-29T01:57:39.134Z,96072.25
2022-10-29T02:00:14.595Z,96054.19
2022-10-29T02:03:18.632Z,96074.66
2022-10-29T02:05:58.896Z,96070.53
2022-10-29T02:08:47.066Z,96062.06
2022-10-29T02:11:27.684Z,96058.16
2022-10-29T02:14:03.977Z,96057.69
2022-10-29T02:16:31.747Z,96057.06
2022-10-29T02:18:59.560Z,96068.31
2022-10-29T02:21:26.475Z,96060.41
2022-10-29T02:23:53.299Z,96065.38
2022-10-29T02:26:19.998Z,96067.22
2022-10-29T02:28:46.655Z,96066.84
2022-10-29T02:31:13.295Z,96066.44
2022-10-29T02:33:40.039Z,96067.25
2022-10-29T02:36:07.124Z,96066.09
2022-10-29T02:38:33.775Z,96066.44
2022-10-29T02:41:00.392Z,96062.25
2022-10-29T02:43:26.999Z,96053.75
2022-10-29T02:46:12.022Z,96063.31
2022-10-29T02:48:38.855Z,96053.75
2022-10-29T02:51:05.587Z,96070.06
2022-10-29T02:53:32.220Z,96056.53
2022-10-29T02:55:59.003Z,96049.22
2022-10-29T02:58:25.611Z,96059.59
2022-10-29T03:00:53.206Z,96031.66
2022-10-29T03:03:19.812Z,96043.97
2022-10-29T03:05:49.019Z,96053.53
2022-10-29T03:08:16.072Z,96046.72
2022-10-29T03:10:42.779Z,96049.78
2022-10-29T03:13:09.678Z,96053.31
2022-10-29T03:15:36.892Z,96049.44
2022-10-29T03:18:04.674Z,96047.88
2022-10-29T03:20:31.301Z,96051.78
2022-10-29T03:22:57.897Z,96054.88
2022-10-29T03:25:24.468Z,96039.88
2022-10-29T03:27:51.083Z,96041.13
2022-10-29T03:30:17.966Z,96048.06
2022-10-29T03:32:46.338Z,96047.72
2022-10-29T03:35:14.712Z,96038.06
2022-10-29T03:37:41.844Z,96041.25
2022-10-29T03:40:09.472Z,96038.94
2022-10-29T03:42:37.636Z,96037.66
2022-10-29T03:45:04.390Z,96040.44
2022-10-29T03:47:33.127Z,96025.78
2022-10-29T03:49:59.674Z,96048.59
2022-10-29T03:52:26.258Z,96049.38
2022-10-29T03:54:52.840Z,96040.84
2022-10-29T03:57:19.782Z,96040.50
2022-10-29T03:59:49.893Z,96030.13
2022-10-29T04:02:19.162Z,96040.25
2022-10-29T04:04:46.007Z,96039.41
2022-10-29T04:07:12.650Z,96049.13
2022-10-29T04:09:39.306Z,96048.00
2022-10-29T04:12:06.521Z,96040.34
2022-10-29T04:14:33.159Z,96034.75
2022-10-29T04:16:59.987Z,96045.66
2022-10-29T04:19:26.953Z,96046.88
2022-10-29T04:32:40.929Z,96058.00
2022-10-29T04:35:07.968Z,96060.66
2022-10-29T04:37:34.556Z,96058.78
2022-10-29T04:40:01.112Z,96055.75
2022-10-29T04:42:27.667Z,96062.69
2022-10-29T04:44:55.593Z,96056.97
2022-10-29T04:47:22.219Z,96056.97
2022-10-29T04:49:48.839Z,96060.44
2022-10-29T04:52:15.540Z,96065.00
2022-10-29T04:54:42.209Z,96043.06
2022-10-29T04:57:09.014Z,96061.53
2022-10-29T04:59:35.548Z,96049.97
2022-10-29T05:02:02.135Z,96052.59
2022-10-29T05:04:29.556Z,96047.56
2022-10-29T05:06:56.129Z,96059.06
2022-10-29T05:09:24.792Z,96063.22
2022-10-29T05:11:51.395Z,96058.09
2022-10-29T05:14:17.978Z,96066.75
2022-10-29T05:16:45.017Z,96069.53
2022-10-29T05:19:11.615Z,96060.59
2022-10-29T05:21:38.188Z,96062.56
2022-10-29T05:24:04.908Z,96058.03
2022-10-29T05:26:34.973Z,96054.19
2022-10-29T05:29:01.666Z,96065.59
2022-10-29T05:31:28.266Z,96062.16
2022-10-29T05:33:55.995Z,96068.59
2022-10-29T05:36:22.985Z,96077.56
2022-10-29T05:38:49.646Z,96071.81
2022-10-29T05:41:17.085Z,96072.81
2022-10-29T05:43:43.721Z,96064.13
2022-10-29T05:46:10.332Z,96090.84
2022-10-29T05:48:36.876Z,96079.81
2022-10-29T05:51:04.480Z,96083.88
2022-10-29T05:53:31.052Z,96089.56
2022-10-29T05:55:59.459Z,96076.66
2022-10-29T05:58:26.121Z,96088.41
2022-10-29T06:00:52.667Z,96088.13
2022-10-29T06:03:21.534Z,96089.88
2022-10-29T06:05:49.640Z,96095.56
2022-10-29T06:08:17.170Z,96092.94
2022-10-29T06:10:43.852Z,96091.91
2022-10-29T06:13:16.483Z,96086.69
2022-10-29T06:15:43.117Z,96099.25
2022-10-29T06:18:09.761Z,96095.31
2022-10-29T06:20:37.757Z,96090.59
2022-10-29T06:23:04.849Z,96102.13
2022-10-29T06:25:32.119Z,96105.28
2022-10-29T06:28:03.852Z,96103.75
2022-10-29T06:30:31.851Z,96094.97
2022-10-29T06:32:59.174Z,96095.66
2022-10-29T06:35:26.523Z,96092.88
2022-10-29T06:37:53.283Z,96082.75
2022-10-29T06:40:20.369Z,96096.44
2022-10-29T06:42:46.928Z,96099.66
2022-10-29T06:45:13.924Z,96111.44
2022-10-29T06:47:45.155Z,96106.84
2022-10-29T06:50:13.513Z,96103.25
2022-10-29T06:52:40.119Z,96104.50
2022-10-29T06:55:07.921Z,96104.66
2022-10-29T06:57:34.983Z,96088.34
2022-10-29T07:00:05.661Z,96088.78
2022-10-29T07:02:35.479Z,96099.13
2022-10-29T07:05:02.180Z,96107.06
2022-10-29T07:07:29.291Z,96102.22
2022-10-29T07:09:55.869Z,96106.28
2022-10-29T07:12:22.417Z,96106.66
2022-10-29T07:14:49.090Z,96119.13
2022-10-29T07:17:15.685Z,96117.34
2022-10-29T07:19:42.293Z,96111.91
2022-10-29T07:22:08.866Z,96109.94
2022-10-29T07:24:35.414Z,96118.97
2022-10-29T07:27:02.152Z,96111.25
2022-10-29T07:29:28.919Z,96108.56
2022-10-29T07:31:55.534Z,96101.66
2022-10-29T07:34:22.105Z,96109.44
2022-10-29T07:36:48.708Z,96099.06
2022-10-29T07:39:15.335Z,96100.09
2022-10-29T07:41:41.871Z,96103.59
2022-10-29T07:44:08.571Z,96109.81
2022-10-29T07:46:35.152Z,96107.75
2022-10-29T07:49:01.891Z,96101.13
2022-10-29T07:51:28.548Z,96096.44
2022-10-29T07:53:55.109Z,96092.38
2022-10-29T07:56:21.710Z,96091.84
2022-10-29T07:58:48.299Z,96102.88
2022-10-29T08:01:15.006Z,96099.34
2022-10-29T08:03:41.747Z,96094.44
2022-10-29T08:06:08.321Z,96094.84
2022-10-29T08:08:34.965Z,96084.66
2022-10-29T08:11:02.725Z,96075.31
2022-10-29T08:13:29.808Z,96085.06
2022-10-29T08:15:56.709Z,96079.84
2022-10-29T08:18:23.274Z,96077.81
2022-10-29T08:20:49.825Z,96075.09
2022-10-29T08:23:16.885Z,96085.72
2022-10-29T08:25:44.491Z,96082.81
2022-10-29T08:28:13.268Z,96078.56
2022-10-29T08:30:40.872Z,96072.63
2022-10-29T08:33:07.679Z,96074.47
2022-10-29T08:35:34.492Z,96071.31
2022-10-29T08:38:01.165Z,96077.69
2022-10-29T08:40:46.497Z,96066.88
2022-10-29T08:43:33.114Z,96063.88
2022-10-29T08:45:59.733Z,96058.97
2022-10-29T08:48:48.014Z,96065.28
2022-10-29T08:51:22.313Z,96056.72
2022-10-29T08:54:17.299Z,96054.88
2022-10-29T08:56:48.462Z,96058.00
2022-10-29T08:59:21.855Z,96055.03
2022-10-29T09:01:49.230Z,96040.88
2022-10-29T09:04:22.583Z,96052.44
2022-10-29T09:07:19.899Z,96049.22
2022-10-29T09:09:46.392Z,96045.94
2022-10-29T09:12:55.125Z,96037.69
2022-10-29T09:15:26.003Z,96045.75
2022-10-29T09:18:30.120Z,96041.69
2022-10-29T09:21:14.008Z,96023.66
2022-10-29T09:23:54.055Z,96037.91
2022-10-29T09:26:40.781Z,96021.00
2022-10-29T09:29:25.057Z,96026.88
2022-10-29T09:31:56.629Z,96024.88
2022-10-29T09:34:36.696Z,96020.44
2022-10-29T09:37:13.463Z,96012.78
2022-10-29T09:39:42.150Z,96013.81
2022-10-29T09:42:12.230Z,96014.94
2022-10-29T09:44:48.160Z,96015.16
2022-10-29T09:47:45.167Z,96014.09
2022-10-29T09:50:23.930Z,96009.56
2022-10-29T09:52:50.650Z,96002.81
2022-10-29T09:55:38.605Z,95990.25
2022-10-29T09:58:06.720Z,96000.25
2022-10-29T10:00:34.333Z,95996.50
2022-10-29T10:03:13.936Z,95977.56
2022-10-29T10:06:07.665Z,95979.75
2022-10-29T10:08:35.690Z,95970.50
2022-10-29T10:11:16.251Z,95966.34
2022-10-29T10:13:57.816Z,95946.22
2022-10-29T10:16:27.598Z,95956.59
2022-10-29T10:18:54.419Z,95949.13
2022-10-29T10:21:25.467Z,95936.78
2022-10-29T10:23:54.196Z,95944.84
2022-10-29T10:26:43.502Z,95923.59
2022-10-29T10:29:19.242Z,95932.13
2022-10-29T10:31:47.888Z,95920.94
2022-10-29T10:34:19.259Z,95918.75
2022-10-29T10:37:02.116Z,95917.81
2022-10-29T10:39:31.562Z,95911.03
2022-10-29T10:42:05.356Z,95909.28
2022-10-29T10:44:33.025Z,95901.22
2022-10-29T10:47:06.747Z,95899.94
2022-10-29T10:49:36.452Z,95900.72
2022-10-29T10:52:16.240Z,95895.94
2022-10-29T10:55:00.639Z,95888.88
2022-10-29T10:57:32.575Z,95892.94
2022-10-29T10:59:59.131Z,95888.16
2022-10-29T11:03:00.087Z,95879.59
2022-10-29T11:05:35.619Z,95877.59
2022-10-29T11:08:19.733Z,95878.78
2022-10-29T11:10:54.627Z,95865.84
2022-10-29T11:13:23.415Z,95866.81
2022-10-29T11:15:58.528Z,95867.31
2022-10-29T11:18:38.085Z,95846.50
2022-10-29T11:21:19.451Z,95852.88
2022-10-29T11:24:19.772Z,95847.69
2022-10-29T11:26:55.734Z,95847.44
2022-10-29T11:29:29.379Z,95846.16
2022-10-29T11:32:13.821Z,95841.41
2022-10-29T11:34:47.695Z,95826.53
2022-10-29T11:37:27.667Z,95834.31
2022-10-29T11:39:57.335Z,95830.09
2022-10-29T11:42:24.911Z,95830.63
2022-10-29T11:44:51.923Z,95824.97
2022-10-29T11:47:31.949Z,95814.63
2022-10-29T11:50:04.592Z,95806.88
2022-10-29T11:52:39.789Z,95819.50
2022-10-29T11:55:38.213Z,95812.78
2022-10-29T11:58:11.611Z,95807.72
2022-10-29T12:00:58.460Z,95805.38
2022-10-29T12:03:39.531Z,95800.75
2022-10-29T12:06:16.745Z,95800.19
2022-10-29T12:08:55.382Z,95792.66
2022-10-29T12:11:43.306Z,95789.56
2022-10-29T12:14:20.841Z,95792.84
2022-10-29T12:16:50.220Z,95787.72
2022-10-29T12:19:31.441Z,95756.88
2022-10-29T12:22:18.080Z,95787.72
2022-10-29T12:25:21.038Z,95783.22
2022-10-29T12:27:56.580Z,95773.09
2022-10-29T12:30:24.529Z,95762.88
2022-10-29T12:33:19.915Z,95772.72
2022-10-29T12:35:49.480Z,95773.72
2022-10-29T12:38:25.896Z,95763.44
2022-10-29T12:41:02.853Z,95760.38
2022-10-29T12:43:31.727Z,95753.59
2022-10-29T12:46:21.550Z,95747.66
2022-10-29T12:49:16.365Z,95744.97
2022-10-29T12:51:54.486Z,95751.75
2022-10-29T12:54:26.871Z,95748.38
2022-10-29T12:56:53.961Z,95745.78
2022-10-29T12:59:32.468Z,95732.38
2022-10-29T13:02:19.026Z,95743.09
2022-10-29T13:05:10.684Z,95743.00
2022-10-29T13:07:38.795Z,95727.22
2022-10-29T13:10:23.649Z,95733.84
2022-10-29T13:12:59.347Z,95736.38
2022-10-29T13:15:45.285Z,95728.16
2022-10-29T13:18:44.941Z,95726.63
2022-10-29T13:21:11.628Z,95735.13
2022-10-29T13:23:38.368Z,95722.25
2022-10-29T13:26:09.137Z,95709.22
2022-10-29T13:28:35.640Z,95715.66
2022-10-29T13:31:02.120Z,95714.88
2022-10-29T13:33:49.342Z,95714.13
2022-10-29T13:36:15.877Z,95710.59
2022-10-29T13:39:04.923Z,95718.69
2022-10-29T13:41:42.958Z,95712.72
2022-10-29T13:44:25.174Z,95706.88
2022-10-29T13:47:15.043Z,95703.22
2022-10-29T13:49:45.203Z,95710.50
2022-10-29T13:52:16.858Z,95680.78
2022-10-29T13:55:01.946Z,95696.97
2022-10-29T13:57:51.895Z,95687.97
2022-10-29T14:00:20.909Z,95688.94
2022-10-29T14:03:02.290Z,95699.63
2022-10-29T14:05:34.045Z,95694.63
2022-10-29T14:08:15.541Z,95690.50
2022-10-29T14:10:42.038Z,95680.34
2022-10-29T14:13:14.329Z,95688.91
2022-10-29T14:16:20.420Z,95697.06
2022-10-29T14:18:49.129Z,95688.94
2022-10-29T14:21:23.995Z,95694.34
2022-10-29T14:23:58.030Z,95692.50
2022-10-29T14:26:25.621Z,95697.72
2022-10-29T14:28:53.118Z,95690.16
2022-10-29T14:31:25.316Z,95686.63
2022-10-29T14:33:56.385Z,95685.97
2022-10-29T14:36:29.883Z,95694.53
2022-10-29T14:38:56.544Z,95686.25
2022-10-29T14:41:24.894Z,95680.94
2022-10-29T14:43:56.225Z,95684.75
2022-10-29T14:46:26.663Z,95686.63
2022-10-29T14:49:05.185Z,95684.41
2022-10-29T14:51:40.412Z,95693.81
2022-10-29T14:54:09.217Z,95690.72
2022-10-29T14:56:40.304Z,95683.13
2022-10-29T14:59:19.333Z,95681.47
2022-10-29T15:01:57.039Z,95679.69
2022-10-29T15:04:29.730Z,95696.00
2022-10-29T15:07:14.721Z,95692.38
2022-10-29T15:09:42.639Z,95678.16
2022-10-29T15:12:21.031Z,95677.19
2022-10-29T15:14:49.801Z,95684.59
2022-10-29T15:17:26.181Z,95691.41
2022-10-29T15:19:59.778Z,95694.69
2022-10-29T15:22:38.142Z,95683.09
2022-10-29T15:25:08.680Z,95693.16
2022-10-29T15:27:36.414Z,95702.72
2022-10-29T15:30:04.455Z,95696.13
2022-10-29T15:32:31.629Z,95695.88
2022-10-29T15:34:59.792Z,95690.81
2022-10-29T15:37:42.231Z,95692.25
2022-10-29T15:40:12.548Z,95695.94
2022-10-29T15:42:40.226Z,95699.94
2022-10-29T15:45:16.346Z,95701.88
2022-10-29T15:47:48.363Z,95701.53
2022-10-29T15:50:19.527Z,95704.50
2022-10-29T15:52:52.346Z,95705.44
2022-10-29T15:55:26.226Z,95702.13
2022-10-29T15:57:56.376Z,95715.16
2022-10-29T16:00:23.976Z,95708.13
2022-10-29T16:02:51.407Z,95718.53
2022-10-29T16:05:18.891Z,95725.88
2022-10-29T16:07:47.301Z,95724.81
2022-10-29T16:10:20.331Z,95724.66
2022-10-29T16:12:49.452Z,95735.97
2022-10-29T16:15:18.862Z,95731.56
2022-10-29T16:17:46.397Z,95734.03
2022-10-29T16:20:18.319Z,95740.19
2022-10-29T16:22:46.720Z,95739.16
2022-10-29T16:25:25.496Z,95747.13
2022-10-29T16:27:52.880Z,95738.00
2022-10-29T16:30:20.979Z,95733.84
2022-10-29T16:32:55.916Z,95745.31
2022-10-29T16:35:25.633Z,95741.59
2022-10-29T16:37:53.529Z,95753.47
2022-10-29T16:40:22.329Z,95758.69
2022-10-29T16:42:48.959Z,95753.47
2022-10-29T16:45:24.843Z,95679.66
2022-10-29T16:47:52.317Z,95756.28
2022-10-29T16:50:38.829Z,95756.97
2022-10-29T16:53:08.292Z,95752.22
2022-10-29T16:55:36.949Z,95753.34
2022-10-29T16:58:04.199Z,95755.81
2022-10-29T17:00:36.377Z,95758.44
2022-10-29T17:03:06.849Z,95765.47
2022-10-29T17:05:39.860Z,95765.38
2022-10-29T17:08:07.004Z,95769.91
2022-10-29T17:10:34.550Z,95772.25
2022-10-29T17:13:01.283Z,95771.72
2022-10-29T17:15:28.365Z,95761.69
2022-10-29T17:17:54.927Z,95772.53
2022-10-29T17:20:21.631Z,95781.91
2022-10-29T17:22:48.217Z,95769.59
2022-10-29T17:25:14.860Z,95775.41
2022-10-29T17:27:41.958Z,95769.94
2022-10-29T17:30:10.827Z,95772.72
2022-10-29T17:32:37.531Z,95768.16
2022-10-29T17:35:04.524Z,95770.13
2022-10-29T17:37:31.462Z,95756.06
2022-10-29T17:40:02.965Z,95772.50
2022-10-29T17:42:33.732Z,95781.06
2022-10-29T17:45:00.289Z,95773.44
2022-10-29T17:47:26.972Z,95774.81
2022-10-29T17:49:53.715Z,95776.38
2022-10-29T17:52:20.352Z,95777.94
2022-10-29T17:54:47.058Z,95779.31
2022-10-29T17:57:13.708Z,95774.03
2022-10-29T17:59:40.437Z,95778.44
2022-10-29T18:02:11.076Z,95785.44
2022-10-29T18:04:37.937Z,95792.72
2022-10-29T18:07:04.510Z,95793.38
2022-10-29T18:09:31.186Z,95797.97
2022-10-29T18:11:57.938Z,95800.69
2022-10-29T18:14:24.727Z,95795.38
2022-10-29T18:16:51.473Z,95794.97
2022-10-29T18:19:18.198Z,95801.50
2022-10-29T18:21:44.997Z,95800.16
2022-10-29T18:24:11.647Z,95803.84
2022-10-29T18:26:38.344Z,95806.56
2022-10-29T18:29:08.488Z,95795.19
2022-10-29T18:31:36.466Z,95809.31
2022-10-29T18:34:06.591Z,95799.88
2022-10-29T18:36:35.722Z,95818.16
2022-10-29T18:39:04.047Z,95804.03
2022-10-29T18:41:31.248Z,95804.47
2022-10-29T18:43:59.114Z,95795.34
2022-10-29T18:46:26.294Z,95803.25
2022-10-29T18:48:53.151Z,95793.66
2022-10-29T18:51:25.739Z,95791.66
2022-10-29T18:53:54.536Z,95790.31
2022-10-29T18:56:22.713Z,95796.72
2022-10-29T18:58:49.773Z,95790.16
2022-10-29T19:01:22.806Z,95771.34
2022-10-29T19:03:51.693Z,95766.75
2022-10-29T19:06:19.852Z,95788.22
2022-10-29T19:08:47.327Z,95770.59
2022-10-29T19:11:16.907Z,95766.63
2022-10-29T19:13:43.920Z,95780.00
2022-10-29T19:16:14.071Z,95782.41
2022-10-29T19:18:41.522Z,95783.78
2022-10-29T19:21:17.325Z,95787.91
2022-10-29T19:23:46.352Z,95797.50
2022-10-29T19:26:15.135Z,95793.06
2022-10-29T19:28:43.194Z,95795.34
2022-10-29T19:31:17.850Z,95791.41
2022-10-29T19:33:52.380Z,95792.75
2022-10-29T19:36:20.034Z,95809.31
2022-10-29T19:38:47.273Z,95805.47
2022-10-29T19:41:15.325Z,95802.38
2022-10-29T19:43:42.127Z,95798.25
2022-10-29T19:46:10.308Z,95812.66
2022-10-29T19:48:36.949Z,95804.19
2022-10-29T19:51:03.927Z,95812.34
2022-10-29T19:53:31.411Z,95813.66
2022-10-29T19:55:58.501Z,95818.31
2022-10-29T19:58:27.703Z,95814.31
2022-10-29T20:00:55.355Z,95821.94
2022-10-29T20:03:22.073Z,95818.00
2022-10-29T20:05:49.549Z,95812.09
2022-10-29T20:08:16.588Z,95807.84
2022-10-29T20:10:43.656Z,95813.47
2022-10-29T20:13:10.408Z,95812.84
2022-10-29T20:15:38.780Z,95794.44
2022-10-29T20:18:05.719Z,95816.53
2022-10-29T20:20:32.383Z,95816.94
2022-10-29T20:23:00.316Z,95822.09
2022-10-29T20:25:27.843Z,95821.53
2022-10-29T20:27:54.508Z,95825.47
2022-10-29T20:30:22.016Z,95823.13
2022-10-29T20:32:49.178Z,95828.34
2022-10-29T20:35:16.979Z,95825.88
2022-10-29T20:37:43.649Z,95825.22
2022-10-29T20:40:11.160Z,95829.91
2022-10-29T20:42:37.776Z,95824.38
2022-10-29T20:45:05.129Z,95830.94
2022-10-29T20:47:31.700Z,95815.34
2022-10-29T20:49:58.448Z,95827.69
2022-10-29T20:52:25.090Z,95826.91
2022-10-29T20:54:51.649Z,95824.50
2022-10-29T20:57:18.222Z,95828.44
2022-10-29T20:59:45.386Z,95823.88
2022-10-29T21:02:12.573Z,95830.72
2022-10-29T21:04:39.405Z,95824.56
2022-10-29T21:07:07.767Z,95821.53
2022-10-29T21:09:34.620Z,95832.25
2022-10-29T21:12:01.208Z,95829.00
2022-10-29T21:14:29.606Z,95820.72
2022-10-29T21:16:56.353Z,95812.41
2022-10-29T21:19:23.086Z,95826.56
2022-10-29T21:21:49.685Z,95830.81
2022-10-29T21:24:17.826Z,95832.28
2022-10-29T21:26:44.414Z,95816.59
2022-10-29T21:29:10.992Z,95813.84
2022-10-29T21:31:37.777Z,95816.34
2022-10-29T21:34:04.378Z,95814.50
2022-10-29T21:36:30.930Z,95816.03
2022-10-29T21:38:57.554Z,95816.03
2022-10-29T21:41:24.108Z,95802.50
2022-10-29T21:43:50.935Z,95813.41
2022-10-29T21:46:17.561Z,95819.84
2022-10-29T21:48:44.125Z,95819.28
2022-10-29T21:51:12.093Z,95814.59
2022-10-29T21:53:38.625Z,95816.66
2022-10-29T21:56:07.923Z,95821.91
2022-10-29T21:58:34.761Z,95811.44
2022-10-29T22:01:10.344Z,95812.09
2022-10-29T22:03:38.716Z,95817.16
2022-10-29T22:06:19.756Z,95803.41
2022-10-29T22:08:47.660Z,95801.03
2022-10-29T22:11:15.420Z,95796.47
2022-10-29T22:13:42.005Z,95799.63
2022-10-29T22:16:09.853Z,95802.66
2022-10-29T22:18:37.696Z,95805.25
2022-10-29T22:21:07.410Z,95797.63
2022-10-29T22:23:34.185Z,95807.41
2022-10-29T22:26:00.859Z,95799.25
2022-10-29T22:28:27.575Z,95785.88
2022-10-29T22:31:01.678Z,95798.09
2022-10-29T22:33:29.052Z,95796.13
2022-10-29T22:35:55.825Z,95800.44
2022-10-29T22:38:22.420Z,95789.84
2022-10-29T22:40:48.984Z,95797.13
2022-10-29T22:43:15.689Z,95794.22
2022-10-29T22:45:44.221Z,95800.44
2022-10-29T22:48:10.753Z,95789.59
2022-10-29T22:50:37.344Z,95795.63
2022-10-29T22:53:03.947Z,95789.75
2022-10-29T22:55:30.560Z,95784.16
2022-10-29T22:57:57.126Z,95798.66
2022-10-29T23:00:23.790Z,95789.88
2022-10-29T23:02:50.428Z,95788.78
2022-10-29T23:05:17.041Z,95788.53
2022-10-29T23:07:43.594Z,95795.00
2022-10-29T23:10:10.236Z,95790.41
2022-10-29T23:12:38.318Z,95788.03
2022-10-29T23:15:05.978Z,95802.50
2022-10-29T23:17:32.648Z,95802.38
2022-10-29T23:19:59.361Z,95800.09
2022-10-29T23:22:27.641Z,95790.50
2022-10-29T23:24:54.451Z,95798.34
2022-10-29T23:27:21.057Z,95791.84
2022-10-29T23:29:47.658Z,95785.50
2022-10-29T23:32:14.224Z,95792.66
2022-10-29T23:34:40.801Z,95786.94
2022-10-29T23:37:09.912Z,95799.66
2022-10-29T23:39:37.079Z,95788.91
2022-10-29T23:42:03.867Z,95787.69
2022-10-29T23:44:30.490Z,95782.28
2022-10-29T23:46:57.068Z,95784.78
2022-10-29T23:49:23.707Z,95781.72
2022-10-29T23:51:50.313Z,95777.13
2022-10-29T23:54:16.886Z,95771.00
2022-10-29T23:56:43.486Z,95769.91
2022-10-29T23:59:10.084Z,95772.28
